sensor_id;sensor_type;location;lat;lon;timestamp;P1;durP1;ratioP1;P2;durP2;ratioP2
66478;SDS011;53294;47.912;13.526;2023-03-04T00:00:14;43.65;;;21.45;;
66478;SDS011;53294;47.912;13.526;2023-03-04T00:02:41;45.22;;;23.45;;
66478;SDS011;53294;47.912;13.526;2023-03-04T00:05:08;43.83;;;22.02;;
66478;SDS011;53294;47.912;13.526;2023-03-04T00:07:34;44.05;;;21.40;;
66478;SDS011;53294;47.912;13.526;2023-03-04T00:10:01;47.45;;;22.98;;
66478;SDS011;53294;47.912;13.526;2023-03-04T00:12:28;51.92;;;24.58;;
66478;SDS011;53294;47.912;13.526;2023-03-04T00:14:55;42.63;;;20.75;;
66478;SDS011;53294;47.912;13.526;2023-03-04T00:17:22;42.50;;;20.20;;
66478;SDS011;53294;47.912;13.526;2023-03-04T00:19:49;47.17;;;23.08;;
66478;SDS011;53294;47.912;13.526;2023-03-04T00:22:15;52.00;;;24.23;;
66478;SDS011;53294;47.912;13.526;2023-03-04T00:24:42;41.03;;;22.48;;
66478;SDS011;53294;47.912;13.526;2023-03-04T00:27:09;44.45;;;22.65;;
66478;SDS011;53294;47.912;13.526;2023-03-04T00:29:36;53.05;;;25.73;;
66478;SDS011;53294;47.912;13.526;2023-03-04T00:32:02;42.03;;;22.60;;
66478;SDS011;53294;47.912;13.526;2023-03-04T00:34:29;46.42;;;23.63;;
66478;SDS011;53294;47.912;13.526;2023-03-04T00:36:58;52.15;;;22.17;;
66478;SDS011;53294;47.912;13.526;2023-03-04T00:39:26;57.08;;;27.58;;
66478;SDS011;53294;47.912;13.526;2023-03-04T00:41:53;45.08;;;21.98;;
66478;SDS011;53294;47.912;13.526;2023-03-04T00:44:20;55.65;;;25.48;;
66478;SDS011;53294;47.912;13.526;2023-03-04T00:46:47;42.97;;;20.60;;
66478;SDS011;53294;47.912;13.526;2023-03-04T00:49:13;46.92;;;24.13;;
66478;SDS011;53294;47.912;13.526;2023-03-04T00:51:40;45.28;;;23.23;;
66478;SDS011;53294;47.912;13.526;2023-03-04T00:54:07;49.83;;;24.92;;
66478;SDS011;53294;47.912;13.526;2023-03-04T00:56:33;43.55;;;21.70;;
66478;SDS011;53294;47.912;13.526;2023-03-04T00:59:00;41.75;;;21.42;;
66478;SDS011;53294;47.912;13.526;2023-03-04T01:01:26;55.05;;;24.27;;
66478;SDS011;53294;47.912;13.526;2023-03-04T01:03:53;50.22;;;22.65;;
66478;SDS011;53294;47.912;13.526;2023-03-04T01:06:20;47.20;;;23.80;;
66478;SDS011;53294;47.912;13.526;2023-03-04T01:08:47;45.47;;;21.70;;
66478;SDS011;53294;47.912;13.526;2023-03-04T01:11:13;53.42;;;27.05;;
66478;SDS011;53294;47.912;13.526;2023-03-04T01:13:40;41.33;;;20.33;;
66478;SDS011;53294;47.912;13.526;2023-03-04T01:16:07;45.15;;;20.38;;
66478;SDS011;53294;47.912;13.526;2023-03-04T01:18:33;46.80;;;23.30;;
66478;SDS011;53294;47.912;13.526;2023-03-04T01:21:00;50.72;;;23.65;;
66478;SDS011;53294;47.912;13.526;2023-03-04T01:23:27;45.70;;;23.02;;
66478;SDS011;53294;47.912;13.526;2023-03-04T01:25:53;56.35;;;26.23;;
66478;SDS011;53294;47.912;13.526;2023-03-04T01:28:20;44.88;;;20.85;;
66478;SDS011;53294;47.912;13.526;2023-03-04T01:30:47;55.97;;;24.17;;
66478;SDS011;53294;47.912;13.526;2023-03-04T01:33:13;45.35;;;22.00;;
66478;SDS011;53294;47.912;13.526;2023-03-04T01:35:40;50.95;;;24.70;;
66478;SDS011;53294;47.912;13.526;2023-03-04T01:38:07;53.45;;;24.13;;
66478;SDS011;53294;47.912;13.526;2023-03-04T01:40:34;51.58;;;22.30;;
66478;SDS011;53294;47.912;13.526;2023-03-04T01:43:00;47.08;;;23.23;;
66478;SDS011;53294;47.912;13.526;2023-03-04T01:45:27;48.10;;;22.92;;
66478;SDS011;53294;47.912;13.526;2023-03-04T01:47:56;45.60;;;20.33;;
66478;SDS011;53294;47.912;13.526;2023-03-04T01:50:26;51.33;;;25.20;;
66478;SDS011;53294;47.912;13.526;2023-03-04T01:52:57;51.55;;;24.50;;
66478;SDS011;53294;47.912;13.526;2023-03-04T01:55:24;47.65;;;23.17;;
66478;SDS011;53294;47.912;13.526;2023-03-04T01:57:51;42.45;;;21.02;;
66478;SDS011;53294;47.912;13.526;2023-03-04T02:02:49;43.15;;;22.13;;
66478;SDS011;53294;47.912;13.526;2023-03-04T02:05:18;48.40;;;22.58;;
66478;SDS011;53294;47.912;13.526;2023-03-04T02:07:46;43.03;;;21.15;;
66478;SDS011;53294;47.912;13.526;2023-03-04T02:10:12;49.60;;;23.55;;
66478;SDS011;53294;47.912;13.526;2023-03-04T02:12:39;50.20;;;24.83;;
66478;SDS011;53294;47.912;13.526;2023-03-04T02:15:07;51.92;;;25.83;;
66478;SDS011;53294;47.912;13.526;2023-03-04T02:17:34;47.25;;;24.90;;
66478;SDS011;53294;47.912;13.526;2023-03-04T02:22:48;47.33;;;22.23;;
66478;SDS011;53294;47.912;13.526;2023-03-04T02:25:38;52.88;;;28.23;;
66478;SDS011;53294;47.912;13.526;2023-03-04T02:28:10;61.80;;;30.63;;
66478;SDS011;53294;47.912;13.526;2023-03-04T02:30:37;59.80;;;28.98;;
66478;SDS011;53294;47.912;13.526;2023-03-04T02:33:03;60.03;;;31.35;;
66478;SDS011;53294;47.912;13.526;2023-03-04T02:35:30;57.83;;;26.88;;
66478;SDS011;53294;47.912;13.526;2023-03-04T02:37:57;58.85;;;29.52;;
66478;SDS011;53294;47.912;13.526;2023-03-04T02:40:28;54.78;;;26.17;;
66478;SDS011;53294;47.912;13.526;2023-03-04T02:42:59;60.33;;;27.88;;
66478;SDS011;53294;47.912;13.526;2023-03-04T02:45:30;59.75;;;27.05;;
66478;SDS011;53294;47.912;13.526;2023-03-04T02:48:11;61.97;;;28.90;;
66478;SDS011;53294;47.912;13.526;2023-03-04T02:50:43;56.45;;;25.40;;
66478;SDS011;53294;47.912;13.526;2023-03-04T02:53:13;50.88;;;23.95;;
66478;SDS011;53294;47.912;13.526;2023-03-04T02:55:40;56.60;;;27.75;;
66478;SDS011;53294;47.912;13.526;2023-03-04T02:58:09;55.40;;;27.35;;
66478;SDS011;53294;47.912;13.526;2023-03-04T03:00:36;55.58;;;25.88;;
66478;SDS011;53294;47.912;13.526;2023-03-04T03:03:03;57.33;;;28.13;;
66478;SDS011;53294;47.912;13.526;2023-03-04T03:05:30;56.08;;;32.25;;
66478;SDS011;53294;47.912;13.526;2023-03-04T03:07:58;67.07;;;30.73;;
66478;SDS011;53294;47.912;13.526;2023-03-04T03:10:25;57.08;;;26.35;;
66478;SDS011;53294;47.912;13.526;2023-03-04T03:12:52;66.00;;;30.15;;
66478;SDS011;53294;47.912;13.526;2023-03-04T03:15:19;58.60;;;29.20;;
66478;SDS011;53294;47.912;13.526;2023-03-04T03:17:46;61.95;;;31.83;;
66478;SDS011;53294;47.912;13.526;2023-03-04T03:20:12;62.85;;;29.25;;
66478;SDS011;53294;47.912;13.526;2023-03-04T03:22:40;56.97;;;29.67;;
66478;SDS011;53294;47.912;13.526;2023-03-04T03:25:07;54.40;;;27.30;;
66478;SDS011;53294;47.912;13.526;2023-03-04T03:27:35;58.78;;;29.10;;
66478;SDS011;53294;47.912;13.526;2023-03-04T03:30:02;52.83;;;27.20;;
66478;SDS011;53294;47.912;13.526;2023-03-04T03:32:29;71.95;;;38.13;;
66478;SDS011;53294;47.912;13.526;2023-03-04T03:34:56;52.65;;;26.67;;
66478;SDS011;53294;47.912;13.526;2023-03-04T03:37:22;44.42;;;24.77;;
66478;SDS011;53294;47.912;13.526;2023-03-04T03:39:49;52.28;;;26.83;;
66478;SDS011;53294;47.912;13.526;2023-03-04T03:42:16;63.42;;;32.58;;
66478;SDS011;53294;47.912;13.526;2023-03-04T03:44:42;62.35;;;30.85;;
66478;SDS011;53294;47.912;13.526;2023-03-04T03:47:09;48.70;;;25.40;;
66478;SDS011;53294;47.912;13.526;2023-03-04T03:49:35;53.33;;;27.90;;
66478;SDS011;53294;47.912;13.526;2023-03-04T03:52:02;50.80;;;24.35;;
66478;SDS011;53294;47.912;13.526;2023-03-04T03:54:29;44.97;;;23.08;;
66478;SDS011;53294;47.912;13.526;2023-03-04T03:56:55;55.83;;;26.45;;
66478;SDS011;53294;47.912;13.526;2023-03-04T03:59:22;45.78;;;22.50;;
66478;SDS011;53294;47.912;13.526;2023-03-04T04:01:49;47.45;;;25.63;;
66478;SDS011;53294;47.912;13.526;2023-03-04T04:04:16;57.65;;;27.58;;
66478;SDS011;53294;47.912;13.526;2023-03-04T04:06:43;48.22;;;27.55;;
66478;SDS011;53294;47.912;13.526;2023-03-04T04:09:09;57.15;;;30.27;;
66478;SDS011;53294;47.912;13.526;2023-03-04T04:11:36;47.40;;;29.85;;
66478;SDS011;53294;47.912;13.526;2023-03-04T04:14:03;44.33;;;25.88;;
66478;SDS011;53294;47.912;13.526;2023-03-04T04:16:29;53.55;;;26.08;;
66478;SDS011;53294;47.912;13.526;2023-03-04T04:18:56;44.85;;;24.30;;
66478;SDS011;53294;47.912;13.526;2023-03-04T04:21:23;46.10;;;23.95;;
66478;SDS011;53294;47.912;13.526;2023-03-04T04:23:50;41.85;;;21.70;;
66478;SDS011;53294;47.912;13.526;2023-03-04T04:26:16;38.67;;;19.63;;
66478;SDS011;53294;47.912;13.526;2023-03-04T04:28:43;47.95;;;23.70;;
66478;SDS011;53294;47.912;13.526;2023-03-04T04:31:09;37.45;;;20.00;;
66478;SDS011;53294;47.912;13.526;2023-03-04T04:33:36;41.80;;;20.90;;
66478;SDS011;53294;47.912;13.526;2023-03-04T04:36:03;42.50;;;21.23;;
66478;SDS011;53294;47.912;13.526;2023-03-04T04:38:30;47.08;;;23.33;;
66478;SDS011;53294;47.912;13.526;2023-03-04T04:40:57;44.72;;;22.52;;
66478;SDS011;53294;47.912;13.526;2023-03-04T04:43:25;47.78;;;32.75;;
66478;SDS011;53294;47.912;13.526;2023-03-04T04:45:51;67.80;;;51.92;;
66478;SDS011;53294;47.912;13.526;2023-03-04T04:48:18;46.55;;;30.45;;
66478;SDS011;53294;47.912;13.526;2023-03-04T04:50:45;41.13;;;22.55;;
66478;SDS011;53294;47.912;13.526;2023-03-04T04:53:12;43.92;;;24.45;;
66478;SDS011;53294;47.912;13.526;2023-03-04T04:55:39;49.42;;;32.75;;
66478;SDS011;53294;47.912;13.526;2023-03-04T04:58:06;54.65;;;32.35;;
66478;SDS011;53294;47.912;13.526;2023-03-04T05:00:33;44.90;;;24.77;;
66478;SDS011;53294;47.912;13.526;2023-03-04T05:02:59;56.20;;;32.00;;
66478;SDS011;53294;47.912;13.526;2023-03-04T05:05:26;49.03;;;28.20;;
66478;SDS011;53294;47.912;13.526;2023-03-04T05:07:53;93.30;;;72.78;;
66478;SDS011;53294;47.912;13.526;2023-03-04T05:10:19;46.75;;;27.08;;
66478;SDS011;53294;47.912;13.526;2023-03-04T05:12:46;50.72;;;31.73;;
66478;SDS011;53294;47.912;13.526;2023-03-04T05:15:13;60.17;;;26.67;;
66478;SDS011;53294;47.912;13.526;2023-03-04T05:17:39;62.00;;;35.42;;
66478;SDS011;53294;47.912;13.526;2023-03-04T05:20:06;43.40;;;20.85;;
66478;SDS011;53294;47.912;13.526;2023-03-04T05:22:34;53.03;;;24.95;;
66478;SDS011;53294;47.912;13.526;2023-03-04T05:25:00;50.72;;;31.80;;
66478;SDS011;53294;47.912;13.526;2023-03-04T05:27:27;53.72;;;26.20;;
66478;SDS011;53294;47.912;13.526;2023-03-04T05:29:54;48.70;;;24.58;;
66478;SDS011;53294;47.912;13.526;2023-03-04T05:32:25;56.75;;;35.17;;
66478;SDS011;53294;47.912;13.526;2023-03-04T05:34:51;55.72;;;31.08;;
66478;SDS011;53294;47.912;13.526;2023-03-04T05:37:18;54.42;;;27.65;;
66478;SDS011;53294;47.912;13.526;2023-03-04T05:39:45;43.65;;;25.05;;
66478;SDS011;53294;47.912;13.526;2023-03-04T05:42:11;46.03;;;25.80;;
66478;SDS011;53294;47.912;13.526;2023-03-04T05:44:38;75.50;;;57.55;;
66478;SDS011;53294;47.912;13.526;2023-03-04T05:47:05;51.28;;;29.13;;
66478;SDS011;53294;47.912;13.526;2023-03-04T05:49:31;45.70;;;23.88;;
66478;SDS011;53294;47.912;13.526;2023-03-04T05:51:58;56.70;;;33.65;;
66478;SDS011;53294;47.912;13.526;2023-03-04T05:54:25;48.58;;;22.85;;
66478;SDS011;53294;47.912;13.526;2023-03-04T05:56:51;48.05;;;23.15;;
66478;SDS011;53294;47.912;13.526;2023-03-04T05:59:18;53.90;;;27.65;;
66478;SDS011;53294;47.912;13.526;2023-03-04T06:01:46;74.15;;;50.47;;
66478;SDS011;53294;47.912;13.526;2023-03-04T06:04:13;55.75;;;35.30;;
66478;SDS011;53294;47.912;13.526;2023-03-04T06:06:39;119.28;;;106.22;;
66478;SDS011;53294;47.912;13.526;2023-03-04T06:09:06;61.55;;;33.05;;
66478;SDS011;53294;47.912;13.526;2023-03-04T06:11:33;50.67;;;28.25;;
66478;SDS011;53294;47.912;13.526;2023-03-04T06:14:01;66.72;;;38.45;;
66478;SDS011;53294;47.912;13.526;2023-03-04T06:16:28;56.45;;;29.20;;
66478;SDS011;53294;47.912;13.526;2023-03-04T06:18:55;63.78;;;32.15;;
66478;SDS011;53294;47.912;13.526;2023-03-04T06:21:22;55.50;;;33.20;;
66478;SDS011;53294;47.912;13.526;2023-03-04T06:23:49;67.13;;;47.83;;
66478;SDS011;53294;47.912;13.526;2023-03-04T06:26:16;58.47;;;39.72;;
66478;SDS011;53294;47.912;13.526;2023-03-04T06:28:42;47.28;;;25.90;;
66478;SDS011;53294;47.912;13.526;2023-03-04T06:31:10;48.17;;;24.48;;
66478;SDS011;53294;47.912;13.526;2023-03-04T06:33:36;51.72;;;26.15;;
66478;SDS011;53294;47.912;13.526;2023-03-04T06:36:03;54.47;;;28.77;;
66478;SDS011;53294;47.912;13.526;2023-03-04T06:38:30;54.72;;;29.48;;
66478;SDS011;53294;47.912;13.526;2023-03-04T06:41:04;64.47;;;33.55;;
66478;SDS011;53294;47.912;13.526;2023-03-04T06:43:32;53.25;;;28.42;;
66478;SDS011;53294;47.912;13.526;2023-03-04T06:45:58;50.55;;;25.95;;
66478;SDS011;53294;47.912;13.526;2023-03-04T06:48:25;57.75;;;27.95;;
66478;SDS011;53294;47.912;13.526;2023-03-04T06:50:52;59.08;;;29.67;;
66478;SDS011;53294;47.912;13.526;2023-03-04T06:53:19;57.47;;;30.17;;
66478;SDS011;53294;47.912;13.526;2023-03-04T06:55:46;56.22;;;28.70;;
66478;SDS011;53294;47.912;13.526;2023-03-04T06:58:13;60.75;;;28.65;;
66478;SDS011;53294;47.912;13.526;2023-03-04T07:00:40;60.80;;;30.40;;
66478;SDS011;53294;47.912;13.526;2023-03-04T07:03:08;62.15;;;28.42;;
66478;SDS011;53294;47.912;13.526;2023-03-04T07:05:36;64.95;;;30.20;;
66478;SDS011;53294;47.912;13.526;2023-03-04T07:08:03;56.03;;;27.60;;
66478;SDS011;53294;47.912;13.526;2023-03-04T07:10:31;58.53;;;28.13;;
66478;SDS011;53294;47.912;13.526;2023-03-04T07:12:58;61.65;;;28.17;;
66478;SDS011;53294;47.912;13.526;2023-03-04T07:15:24;65.80;;;29.88;;
66478;SDS011;53294;47.912;13.526;2023-03-04T07:17:51;55.10;;;27.42;;
66478;SDS011;53294;47.912;13.526;2023-03-04T07:20:18;60.28;;;30.65;;
66478;SDS011;53294;47.912;13.526;2023-03-04T07:22:45;59.38;;;30.10;;
66478;SDS011;53294;47.912;13.526;2023-03-04T07:25:11;58.45;;;30.25;;
66478;SDS011;53294;47.912;13.526;2023-03-04T07:27:38;52.63;;;26.45;;
66478;SDS011;53294;47.912;13.526;2023-03-04T07:30:06;55.80;;;29.73;;
66478;SDS011;53294;47.912;13.526;2023-03-04T07:32:34;61.35;;;29.45;;
66478;SDS011;53294;47.912;13.526;2023-03-04T07:35:01;64.50;;;30.33;;
66478;SDS011;53294;47.912;13.526;2023-03-04T07:37:29;59.28;;;28.60;;
66478;SDS011;53294;47.912;13.526;2023-03-04T07:39:55;58.33;;;30.13;;
66478;SDS011;53294;47.912;13.526;2023-03-04T07:42:22;60.95;;;28.80;;
66478;SDS011;53294;47.912;13.526;2023-03-04T07:44:49;60.17;;;30.38;;
66478;SDS011;53294;47.912;13.526;2023-03-04T07:47:15;63.08;;;32.72;;
66478;SDS011;53294;47.912;13.526;2023-03-04T07:49:42;66.93;;;30.40;;
66478;SDS011;53294;47.912;13.526;2023-03-04T07:52:09;55.28;;;29.85;;
66478;SDS011;53294;47.912;13.526;2023-03-04T07:54:35;53.25;;;27.05;;
66478;SDS011;53294;47.912;13.526;2023-03-04T07:57:02;47.95;;;25.58;;
66478;SDS011;53294;47.912;13.526;2023-03-04T07:59:29;46.55;;;24.15;;
66478;SDS011;53294;47.912;13.526;2023-03-04T08:01:56;48.35;;;25.88;;
66478;SDS011;53294;47.912;13.526;2023-03-04T08:04:22;45.10;;;24.00;;
66478;SDS011;53294;47.912;13.526;2023-03-04T08:06:49;40.38;;;21.67;;
66478;SDS011;53294;47.912;13.526;2023-03-04T08:09:16;47.28;;;24.10;;
66478;SDS011;53294;47.912;13.526;2023-03-04T08:11:43;45.67;;;21.55;;
66478;SDS011;53294;47.912;13.526;2023-03-04T08:14:10;51.10;;;25.98;;
66478;SDS011;53294;47.912;13.526;2023-03-04T08:16:37;49.15;;;25.70;;
66478;SDS011;53294;47.912;13.526;2023-03-04T08:19:05;53.35;;;26.92;;
66478;SDS011;53294;47.912;13.526;2023-03-04T08:21:32;44.88;;;24.85;;
66478;SDS011;53294;47.912;13.526;2023-03-04T08:24:00;47.63;;;24.30;;
66478;SDS011;53294;47.912;13.526;2023-03-04T08:26:35;48.40;;;25.60;;
66478;SDS011;53294;47.912;13.526;2023-03-04T08:29:06;42.47;;;23.38;;
66478;SDS011;53294;47.912;13.526;2023-03-04T08:31:34;45.22;;;24.20;;
66478;SDS011;53294;47.912;13.526;2023-03-04T08:34:02;39.33;;;21.13;;
66478;SDS011;53294;47.912;13.526;2023-03-04T08:36:30;50.72;;;23.75;;
66478;SDS011;53294;47.912;13.526;2023-03-04T08:38:56;45.95;;;22.20;;
66478;SDS011;53294;47.912;13.526;2023-03-04T08:41:23;49.80;;;23.83;;
66478;SDS011;53294;47.912;13.526;2023-03-04T08:43:52;44.67;;;22.92;;
66478;SDS011;53294;47.912;13.526;2023-03-04T08:46:19;46.10;;;24.52;;
66478;SDS011;53294;47.912;13.526;2023-03-04T08:48:46;41.67;;;20.80;;
66478;SDS011;53294;47.912;13.526;2023-03-04T08:51:13;49.42;;;25.55;;
66478;SDS011;53294;47.912;13.526;2023-03-04T08:53:42;53.80;;;27.60;;
66478;SDS011;53294;47.912;13.526;2023-03-04T08:56:09;48.63;;;24.45;;
66478;SDS011;53294;47.912;13.526;2023-03-04T08:58:36;52.30;;;25.13;;
66478;SDS011;53294;47.912;13.526;2023-03-04T09:01:04;50.97;;;24.88;;
66478;SDS011;53294;47.912;13.526;2023-03-04T09:03:32;50.50;;;23.52;;
66478;SDS011;53294;47.912;13.526;2023-03-04T09:06:00;55.25;;;26.70;;
66478;SDS011;53294;47.912;13.526;2023-03-04T09:08:28;46.20;;;24.10;;
66478;SDS011;53294;47.912;13.526;2023-03-04T09:10:56;48.42;;;24.25;;
66478;SDS011;53294;47.912;13.526;2023-03-04T09:13:23;47.35;;;25.35;;
66478;SDS011;53294;47.912;13.526;2023-03-04T09:15:51;49.15;;;25.60;;
66478;SDS011;53294;47.912;13.526;2023-03-04T09:18:19;51.83;;;25.33;;
66478;SDS011;53294;47.912;13.526;2023-03-04T09:20:47;41.95;;;22.80;;
66478;SDS011;53294;47.912;13.526;2023-03-04T09:23:14;47.67;;;22.90;;
66478;SDS011;53294;47.912;13.526;2023-03-04T09:25:42;54.17;;;25.60;;
66478;SDS011;53294;47.912;13.526;2023-03-04T09:28:11;48.65;;;25.20;;
66478;SDS011;53294;47.912;13.526;2023-03-04T09:30:39;48.92;;;25.27;;
66478;SDS011;53294;47.912;13.526;2023-03-04T09:33:06;48.33;;;26.58;;
66478;SDS011;53294;47.912;13.526;2023-03-04T09:35:32;47.10;;;23.85;;
66478;SDS011;53294;47.912;13.526;2023-03-04T09:37:59;47.50;;;25.52;;
66478;SDS011;53294;47.912;13.526;2023-03-04T09:40:36;42.20;;;23.98;;
66478;SDS011;53294;47.912;13.526;2023-03-04T09:43:10;47.53;;;23.30;;
66478;SDS011;53294;47.912;13.526;2023-03-04T09:45:46;49.17;;;27.15;;
66478;SDS011;53294;47.912;13.526;2023-03-04T09:48:17;46.20;;;22.80;;
66478;SDS011;53294;47.912;13.526;2023-03-04T09:50:59;46.67;;;25.98;;
66478;SDS011;53294;47.912;13.526;2023-03-04T09:53:48;46.03;;;25.63;;
66478;SDS011;53294;47.912;13.526;2023-03-04T09:56:25;43.42;;;23.77;;
66478;SDS011;53294;47.912;13.526;2023-03-04T10:01:39;45.47;;;23.73;;
66478;SDS011;53294;47.912;13.526;2023-03-04T10:06:47;46.58;;;24.30;;
66478;SDS011;53294;47.912;13.526;2023-03-04T10:09:24;43.97;;;26.57;;
66478;SDS011;53294;47.912;13.526;2023-03-04T10:12:00;46.60;;;23.85;;
66478;SDS011;53294;47.912;13.526;2023-03-04T10:14:36;45.08;;;23.20;;
66478;SDS011;53294;47.912;13.526;2023-03-04T10:19:52;47.33;;;26.75;;
66478;SDS011;53294;47.912;13.526;2023-03-04T10:25:14;49.70;;;25.77;;
66478;SDS011;53294;47.912;13.526;2023-03-04T10:28:29;50.70;;;27.08;;
66478;SDS011;53294;47.912;13.526;2023-03-04T10:33:22;52.53;;;28.63;;
66478;SDS011;53294;47.912;13.526;2023-03-04T10:38:24;48.40;;;25.85;;
66478;SDS011;53294;47.912;13.526;2023-03-04T10:40:54;52.75;;;26.30;;
66478;SDS011;53294;47.912;13.526;2023-03-04T10:43:20;52.92;;;29.38;;
66478;SDS011;53294;47.912;13.526;2023-03-04T10:45:47;48.65;;;27.58;;
66478;SDS011;53294;47.912;13.526;2023-03-04T10:48:27;48.30;;;26.83;;
66478;SDS011;53294;47.912;13.526;2023-03-04T10:51:12;46.55;;;25.80;;
66478;SDS011;53294;47.912;13.526;2023-03-04T10:53:39;47.85;;;25.38;;
66478;SDS011;53294;47.912;13.526;2023-03-04T11:02:35;50.15;;;25.85;;
66478;SDS011;53294;47.912;13.526;2023-03-04T11:10:24;58.40;;;28.50;;
66478;SDS011;53294;47.912;13.526;2023-03-04T11:15:25;55.25;;;27.60;;
66478;SDS011;53294;47.912;13.526;2023-03-04T11:18:02;49.28;;;25.35;;
66478;SDS011;53294;47.912;13.526;2023-03-04T11:20:38;48.25;;;25.00;;
66478;SDS011;53294;47.912;13.526;2023-03-04T11:25:46;42.80;;;25.08;;
66478;SDS011;53294;47.912;13.526;2023-03-04T11:30:53;49.55;;;25.17;;
66478;SDS011;53294;47.912;13.526;2023-03-04T11:33:27;45.70;;;24.50;;
66478;SDS011;53294;47.912;13.526;2023-03-04T11:42:16;44.33;;;23.17;;
66478;SDS011;53294;47.912;13.526;2023-03-04T11:44:53;43.28;;;23.95;;
66478;SDS011;53294;47.912;13.526;2023-03-04T11:56:01;40.80;;;24.58;;
66478;SDS011;53294;47.912;13.526;2023-03-04T12:01:24;41.80;;;22.67;;
66478;SDS011;53294;47.912;13.526;2023-03-04T12:07:05;37.88;;;23.05;;
66478;SDS011;53294;47.912;13.526;2023-03-04T12:09:44;36.28;;;21.55;;
66478;SDS011;53294;47.912;13.526;2023-03-04T12:24:37;36.90;;;21.45;;
66478;SDS011;53294;47.912;13.526;2023-03-04T12:35:37;40.25;;;22.92;;
66478;SDS011;53294;47.912;13.526;2023-03-04T12:46:31;40.40;;;23.92;;
66478;SDS011;53294;47.912;13.526;2023-03-04T12:56:38;38.95;;;22.23;;
66478;SDS011;53294;47.912;13.526;2023-03-04T12:59:27;37.90;;;22.83;;
66478;SDS011;53294;47.912;13.526;2023-03-04T13:07:37;37.17;;;22.08;;
66478;SDS011;53294;47.912;13.526;2023-03-04T13:10:15;36.45;;;22.10;;
66478;SDS011;53294;47.912;13.526;2023-03-04T13:12:46;39.30;;;20.38;;
66478;SDS011;53294;47.912;13.526;2023-03-04T13:15:16;36.17;;;19.67;;
66478;SDS011;53294;47.912;13.526;2023-03-04T13:25:30;34.28;;;20.30;;
66478;SDS011;53294;47.912;13.526;2023-03-04T13:30:40;36.63;;;19.35;;
66478;SDS011;53294;47.912;13.526;2023-03-04T13:56:25;29.95;;;17.33;;
66478;SDS011;53294;47.912;13.526;2023-03-04T14:01:58;27.58;;;17.15;;
66478;SDS011;53294;47.912;13.526;2023-03-04T14:04:36;28.40;;;19.05;;
66478;SDS011;53294;47.912;13.526;2023-03-04T14:07:23;30.85;;;17.80;;
66478;SDS011;53294;47.912;13.526;2023-03-04T14:15:29;25.88;;;15.57;;
66478;SDS011;53294;47.912;13.526;2023-03-04T14:17:58;27.60;;;15.90;;
66478;SDS011;53294;47.912;13.526;2023-03-04T14:20:28;29.10;;;15.75;;
66478;SDS011;53294;47.912;13.526;2023-03-04T14:22:57;24.50;;;15.80;;
66478;SDS011;53294;47.912;13.526;2023-03-04T14:25:26;33.05;;;17.98;;
66478;SDS011;53294;47.912;13.526;2023-03-04T14:30:50;27.60;;;17.30;;
66478;SDS011;53294;47.912;13.526;2023-03-04T14:33:26;27.67;;;17.23;;
66478;SDS011;53294;47.912;13.526;2023-03-04T14:35:57;29.00;;;17.05;;
66478;SDS011;53294;47.912;13.526;2023-03-04T14:38:36;23.73;;;15.10;;
66478;SDS011;53294;47.912;13.526;2023-03-04T14:41:11;27.15;;;16.15;;
66478;SDS011;53294;47.912;13.526;2023-03-04T14:44:27;28.90;;;18.33;;
66478;SDS011;53294;47.912;13.526;2023-03-04T14:46:40;29.52;;;16.63;;
66478;SDS011;53294;47.912;13.526;2023-03-04T14:49:22;26.25;;;16.98;;
66478;SDS011;53294;47.912;13.526;2023-03-04T14:51:49;24.95;;;15.63;;
66478;SDS011;53294;47.912;13.526;2023-03-04T14:54:31;25.42;;;16.45;;
66478;SDS011;53294;47.912;13.526;2023-03-04T14:57:21;25.75;;;15.60;;
66478;SDS011;53294;47.912;13.526;2023-03-04T14:59:51;26.60;;;14.60;;
66478;SDS011;53294;47.912;13.526;2023-03-04T15:02:22;24.90;;;15.75;;
66478;SDS011;53294;47.912;13.526;2023-03-04T15:04:57;29.90;;;15.32;;
66478;SDS011;53294;47.912;13.526;2023-03-04T15:07:42;25.65;;;15.80;;
66478;SDS011;53294;47.912;13.526;2023-03-04T15:10:18;24.38;;;14.95;;
66478;SDS011;53294;47.912;13.526;2023-03-04T15:12:52;30.63;;;15.85;;
66478;SDS011;53294;47.912;13.526;2023-03-04T15:18:25;25.05;;;14.15;;
66478;SDS011;53294;47.912;13.526;2023-03-04T15:23:23;29.92;;;18.08;;
66478;SDS011;53294;47.912;13.526;2023-03-04T15:25:54;29.40;;;16.33;;
66478;SDS011;53294;47.912;13.526;2023-03-04T15:28:24;24.70;;;15.02;;
66478;SDS011;53294;47.912;13.526;2023-03-04T15:30:52;31.42;;;17.80;;
66478;SDS011;53294;47.912;13.526;2023-03-04T15:33:19;30.00;;;17.20;;
66478;SDS011;53294;47.912;13.526;2023-03-04T15:35:56;29.13;;;16.30;;
66478;SDS011;53294;47.912;13.526;2023-03-04T15:38:26;30.40;;;18.10;;
66478;SDS011;53294;47.912;13.526;2023-03-04T15:40:53;30.55;;;17.63;;
66478;SDS011;53294;47.912;13.526;2023-03-04T15:43:23;28.67;;;17.17;;
66478;SDS011;53294;47.912;13.526;2023-03-04T15:45:50;29.80;;;18.27;;
66478;SDS011;53294;47.912;13.526;2023-03-04T15:48:18;27.98;;;17.38;;
66478;SDS011;53294;47.912;13.526;2023-03-04T15:50:51;30.00;;;18.23;;
66478;SDS011;53294;47.912;13.526;2023-03-04T15:53:36;28.77;;;17.63;;
66478;SDS011;53294;47.912;13.526;2023-03-04T15:56:09;32.15;;;18.25;;
66478;SDS011;53294;47.912;13.526;2023-03-04T15:58:39;31.17;;;18.35;;
66478;SDS011;53294;47.912;13.526;2023-03-04T16:01:06;29.40;;;17.30;;
66478;SDS011;53294;47.912;13.526;2023-03-04T16:03:32;26.83;;;17.33;;
66478;SDS011;53294;47.912;13.526;2023-03-04T16:05:59;25.98;;;16.40;;
66478;SDS011;53294;47.912;13.526;2023-03-04T16:08:26;30.38;;;19.02;;
66478;SDS011;53294;47.912;13.526;2023-03-04T16:10:53;28.80;;;18.70;;
66478;SDS011;53294;47.912;13.526;2023-03-04T16:13:21;29.10;;;18.13;;
66478;SDS011;53294;47.912;13.526;2023-03-04T16:15:49;28.85;;;15.50;;
66478;SDS011;53294;47.912;13.526;2023-03-04T16:18:16;27.85;;;16.08;;
66478;SDS011;53294;47.912;13.526;2023-03-04T16:20:43;24.25;;;14.85;;
66478;SDS011;53294;47.912;13.526;2023-03-04T16:23:14;22.90;;;14.88;;
66478;SDS011;53294;47.912;13.526;2023-03-04T16:25:45;24.42;;;14.75;;
66478;SDS011;53294;47.912;13.526;2023-03-04T16:28:13;18.70;;;12.07;;
66478;SDS011;53294;47.912;13.526;2023-03-04T16:30:40;20.55;;;12.43;;
66478;SDS011;53294;47.912;13.526;2023-03-04T16:33:07;17.83;;;10.60;;
66478;SDS011;53294;47.912;13.526;2023-03-04T16:35:37;18.23;;;11.88;;
66478;SDS011;53294;47.912;13.526;2023-03-04T16:38:05;19.38;;;11.95;;
66478;SDS011;53294;47.912;13.526;2023-03-04T16:40:46;18.63;;;11.73;;
66478;SDS011;53294;47.912;13.526;2023-03-04T16:43:14;15.95;;;11.10;;
66478;SDS011;53294;47.912;13.526;2023-03-04T16:45:41;15.50;;;9.93;;
66478;SDS011;53294;47.912;13.526;2023-03-04T16:48:08;15.57;;;10.00;;
66478;SDS011;53294;47.912;13.526;2023-03-04T16:50:35;19.95;;;11.48;;
66478;SDS011;53294;47.912;13.526;2023-03-04T16:53:04;16.40;;;10.35;;